createdAt,value
2018-07-24T00:01:29.126Z,22.04
2018-07-24T00:03:57.416Z,22.06
2018-07-24T00:06:25.865Z,22.15
2018-07-24T00:08:54.082Z,22.09
2018-07-24T00:11:22.331Z,22.09
2018-07-24T00:13:50.528Z,22.18
2018-07-24T00:16:19.149Z,22.02
2018-07-24T00:18:47.542Z,21.99
2018-07-24T00:21:15.826Z,21.93
2018-07-24T00:23:44.068Z,21.82
2018-07-24T00:26:12.425Z,21.95
2018-07-24T00:28:40.604Z,21.78
2018-07-24T00:31:08.945Z,21.80
2018-07-24T00:33:37.154Z,21.75
2018-07-24T00:36:05.337Z,21.65
2018-07-24T00:38:33.598Z,21.57
2018-07-24T00:41:01.863Z,21.46
2018-07-24T00:43:30.083Z,21.56
2018-07-24T00:45:58.510Z,21.48
2018-07-24T00:48:26.759Z,21.44
2018-07-24T00:50:54.933Z,21.40
2018-07-24T00:53:23.142Z,21.47
2018-07-24T00:55:51.384Z,21.53
2018-07-24T00:58:19.644Z,21.39
2018-07-24T01:00:47.940Z,21.37
2018-07-24T01:03:16.143Z,21.33
2018-07-24T01:05:44.369Z,21.37
2018-07-24T01:08:12.576Z,21.31
2018-07-24T01:10:40.802Z,21.14
2018-07-24T01:13:09.059Z,21.07
2018-07-24T01:15:37.311Z,20.99
2018-07-24T01:18:05.605Z,20.92
2018-07-24T01:20:33.819Z,20.94
2018-07-24T01:23:02.131Z,20.88
2018-07-24T01:25:30.706Z,20.77
2018-07-24T01:27:59.070Z,20.81
2018-07-24T01:30:27.286Z,20.83
2018-07-24T01:32:55.568Z,20.68
2018-07-24T01:35:23.995Z,20.74
2018-07-24T01:37:52.223Z,20.74
2018-07-24T01:40:20.621Z,20.77
2018-07-24T01:42:48.792Z,20.69
2018-07-24T01:45:17.026Z,20.79
2018-07-24T01:47:45.311Z,20.68
2018-07-24T01:50:13.524Z,20.63
2018-07-24T01:52:41.823Z,20.61
2018-07-24T01:55:10.242Z,20.52
2018-07-24T01:57:38.482Z,20.61
2018-07-24T02:00:07.301Z,20.62
2018-07-24T02:02:35.569Z,20.55
2018-07-24T02:05:03.885Z,20.58
2018-07-24T02:07:32.168Z,20.65
2018-07-24T02:10:00.462Z,20.60
2018-07-24T02:12:28.764Z,20.50
2018-07-24T02:14:56.995Z,20.52
2018-07-24T02:17:25.249Z,20.47
2018-07-24T02:19:53.546Z,20.42
2018-07-24T02:22:21.855Z,20.40
2018-07-24T02:24:50.120Z,20.21
2018-07-24T02:27:18.354Z,20.24
2018-07-24T02:29:47.383Z,20.03
2018-07-24T02:32:15.684Z,20.16
2018-07-24T02:34:43.885Z,20.07
2018-07-24T02:37:12.128Z,20.04
2018-07-24T02:39:40.440Z,20.14
2018-07-24T02:42:08.656Z,20.23
2018-07-24T02:44:36.848Z,20.26
2018-07-24T02:47:05.174Z,19.97
2018-07-24T02:49:33.504Z,20.04
2018-07-24T02:52:01.752Z,20.06
2018-07-24T02:54:29.969Z,19.92
2018-07-24T02:56:58.191Z,19.98
2018-07-24T02:59:26.384Z,20.00
2018-07-24T03:01:54.661Z,19.89
2018-07-24T03:04:23.008Z,19.96
2018-07-24T03:06:51.309Z,20.07
2018-07-24T03:09:19.574Z,19.99
2018-07-24T03:11:47.739Z,19.88
2018-07-24T03:14:16.010Z,19.89
2018-07-24T03:16:44.232Z,19.75
2018-07-24T03:19:12.437Z,19.89
2018-07-24T03:21:40.653Z,19.72
2018-07-24T03:24:08.891Z,19.58
2018-07-24T03:26:37.269Z,19.76
2018-07-24T03:29:05.674Z,19.58
2018-07-24T03:31:33.933Z,19.47
2018-07-24T03:34:02.095Z,19.66
2018-07-24T03:36:30.290Z,19.56
2018-07-24T03:38:58.743Z,19.59
2018-07-24T03:41:27.140Z,19.50
2018-07-24T03:43:55.434Z,19.68
2018-07-24T03:46:23.655Z,19.60
2018-07-24T03:48:51.846Z,19.72
2018-07-24T03:51:20.081Z,19.55
2018-07-24T03:53:48.343Z,19.58
2018-07-24T03:56:16.571Z,19.65
2018-07-24T03:58:45.483Z,19.58
2018-07-24T04:01:13.752Z,19.68
2018-07-24T04:03:41.951Z,19.64
2018-07-24T04:06:10.201Z,19.61
2018-07-24T04:08:38.414Z,19.69
2018-07-24T04:11:06.584Z,19.64
2018-07-24T04:13:34.805Z,19.59
2018-07-24T04:16:03.144Z,19.63
2018-07-24T04:18:36.433Z,19.66
2018-07-24T04:21:04.696Z,19.78
2018-07-24T04:23:32.952Z,19.72
2018-07-24T04:26:01.218Z,19.68
2018-07-24T04:28:29.427Z,19.80
2018-07-24T04:30:57.700Z,19.71
2018-07-24T04:33:25.951Z,19.72
2018-07-24T04:35:54.153Z,19.66
2018-07-24T04:38:22.379Z,19.82
2018-07-24T04:40:50.584Z,19.73
2018-07-24T04:43:18.819Z,19.79
2018-07-24T04:45:47.030Z,20.06
2018-07-24T04:48:15.262Z,19.94
2018-07-24T04:50:43.562Z,19.99
2018-07-24T04:53:11.763Z,20.01
2018-07-24T04:55:39.977Z,20.14
2018-07-24T04:58:08.695Z,20.11
2018-07-24T05:00:36.921Z,20.26
2018-07-24T05:03:05.883Z,20.37
2018-07-24T05:05:34.457Z,20.38
2018-07-24T05:08:02.654Z,20.38
2018-07-24T05:10:31.535Z,20.41
2018-07-24T05:12:59.728Z,20.38
2018-07-24T05:15:27.997Z,20.47
2018-07-24T05:17:56.848Z,20.43
2018-07-24T05:20:25.231Z,20.60
2018-07-24T05:22:54.362Z,20.63
2018-07-24T05:25:22.629Z,20.64
2018-07-24T05:27:50.909Z,20.65
2018-07-24T05:30:19.569Z,20.62
2018-07-24T05:32:47.809Z,20.73
2018-07-24T05:35:16.490Z,20.81
2018-07-24T05:37:44.772Z,20.83
2018-07-24T05:40:13.056Z,20.78
2018-07-24T05:42:41.397Z,20.78
2018-07-24T05:45:09.738Z,20.89
2018-07-24T05:47:37.981Z,20.84
2018-07-24T05:50:06.205Z,20.98
2018-07-24T05:52:34.440Z,20.96
2018-07-24T05:55:02.695Z,21.00
2018-07-24T05:57:30.896Z,21.01
2018-07-24T05:59:59.373Z,21.08
2018-07-24T06:02:27.629Z,21.20
2018-07-24T06:04:55.841Z,21.28
2018-07-24T06:07:24.162Z,21.28
2018-07-24T06:09:52.318Z,21.40
2018-07-24T06:12:20.551Z,21.38
2018-07-24T06:14:48.790Z,21.44
2018-07-24T06:17:17.025Z,21.49
2018-07-24T06:19:45.338Z,21.57
2018-07-24T06:22:14.300Z,21.59
2018-07-24T06:24:42.592Z,21.69
2018-07-24T06:27:10.878Z,21.77
2018-07-24T06:29:39.132Z,21.84
2018-07-24T06:32:07.533Z,21.86
2018-07-24T06:34:35.789Z,21.91
2018-07-24T06:37:03.989Z,22.08
2018-07-24T06:39:32.215Z,22.10
2018-07-24T06:42:00.424Z,22.19
2018-07-24T06:44:28.688Z,22.24
2018-07-24T06:46:56.941Z,22.26
2018-07-24T06:49:25.144Z,22.29
2018-07-24T06:51:53.431Z,22.49
2018-07-24T06:54:21.628Z,22.50
2018-07-24T06:56:49.985Z,22.47
2018-07-24T06:59:18.182Z,22.63
2018-07-24T07:01:46.435Z,22.73
2018-07-24T07:04:14.701Z,22.86
2018-07-24T07:06:42.938Z,22.88
2018-07-24T07:09:11.182Z,22.88
2018-07-24T07:11:39.407Z,22.87
2018-07-24T07:14:07.706Z,23.18
2018-07-24T07:16:36.037Z,23.15
2018-07-24T07:19:04.254Z,23.14
2018-07-24T07:21:32.471Z,23.31
2018-07-24T07:24:00.742Z,23.26
2018-07-24T07:26:28.962Z,23.71
2018-07-24T07:28:57.199Z,23.45
2018-07-24T07:31:25.424Z,23.57
2018-07-24T07:33:53.652Z,23.69
2018-07-24T07:36:21.957Z,23.74
2018-07-24T07:38:50.182Z,23.59
2018-07-24T07:41:18.401Z,23.69
2018-07-24T07:43:46.643Z,24.00
2018-07-24T07:46:14.908Z,23.96
2018-07-24T07:48:43.148Z,23.79
2018-07-24T07:51:11.425Z,24.08
2018-07-24T07:53:39.652Z,24.25
2018-07-24T07:56:07.862Z,24.20
2018-07-24T07:58:36.066Z,24.37
2018-07-24T08:01:04.293Z,24.26
2018-07-24T08:03:32.464Z,24.00
2018-07-24T08:06:00.681Z,24.16
2018-07-24T08:08:29.036Z,24.21
2018-07-24T08:10:57.349Z,24.52
2018-07-24T08:13:25.669Z,24.46
2018-07-24T08:15:53.911Z,25.19
2018-07-24T08:18:22.137Z,24.66
2018-07-24T08:20:50.336Z,25.01
2018-07-24T08:23:18.600Z,24.66
2018-07-24T08:25:46.809Z,24.59
2018-07-24T08:28:15.229Z,24.61
2018-07-24T08:30:43.427Z,24.66
2018-07-24T08:33:11.599Z,24.58
2018-07-24T08:35:39.801Z,24.51
2018-07-24T08:38:08.045Z,25.04
2018-07-24T08:40:36.313Z,25.48
2018-07-24T08:43:04.562Z,25.46
2018-07-24T08:45:32.806Z,25.14
2018-07-24T08:48:01.053Z,25.00
2018-07-24T08:50:29.257Z,25.00
2018-07-24T08:52:57.566Z,25.18
2018-07-24T08:55:26.025Z,25.24
2018-07-24T08:57:54.288Z,25.42
2018-07-24T09:00:22.507Z,25.22
2018-07-24T09:02:50.788Z,25.20
2018-07-24T09:05:19.069Z,25.22
2018-07-24T09:07:47.362Z,25.62
2018-07-24T09:10:15.675Z,25.48
2018-07-24T09:12:43.779Z,25.12
2018-07-24T09:15:12.023Z,25.36
2018-07-24T09:17:40.200Z,25.33
2018-07-24T09:20:08.460Z,25.39
2018-07-24T09:22:36.933Z,25.84
2018-07-24T09:25:05.220Z,25.66
2018-07-24T09:27:33.426Z,25.55
2018-07-24T09:30:01.619Z,25.61
2018-07-24T09:32:29.867Z,25.72
2018-07-24T09:34:58.095Z,25.80
2018-07-24T09:37:26.452Z,25.69
2018-07-24T09:39:54.711Z,25.99
2018-07-24T09:42:22.962Z,25.80
2018-07-24T09:44:51.205Z,25.66
2018-07-24T09:47:19.485Z,25.59
2018-07-24T09:49:47.702Z,26.72
2018-07-24T09:52:15.927Z,26.14
2018-07-24T09:54:44.156Z,26.26
2018-07-24T09:57:12.337Z,26.05
2018-07-24T09:59:40.660Z,26.07
2018-07-24T10:02:09.579Z,26.34
2018-07-24T10:04:37.816Z,25.99
2018-07-24T10:07:06.015Z,26.20
2018-07-24T10:09:34.302Z,26.12
2018-07-24T10:12:02.590Z,26.14
2018-07-24T10:14:30.810Z,26.44
2018-07-24T10:16:59.144Z,26.37
2018-07-24T10:19:27.283Z,26.45
2018-07-24T10:21:55.494Z,26.93
2018-07-24T10:24:23.762Z,26.77
2018-07-24T10:26:51.953Z,26.81
2018-07-24T10:29:20.192Z,27.19
2018-07-24T10:31:48.420Z,26.96
2018-07-24T10:34:16.608Z,27.65
2018-07-24T10:36:44.785Z,26.97
2018-07-24T10:39:13.277Z,27.04
2018-07-24T10:41:41.778Z,27.62
2018-07-24T10:44:10.163Z,27.45
2018-07-24T10:46:38.883Z,28.00
2018-07-24T10:49:07.291Z,27.75
2018-07-24T10:51:35.492Z,27.88
2018-07-24T10:54:03.758Z,27.77
2018-07-24T10:56:32.470Z,27.34
2018-07-24T10:59:00.773Z,27.83
2018-07-24T11:01:29.060Z,27.65
2018-07-24T11:03:57.719Z,27.53
2018-07-24T11:06:26.178Z,28.10
2018-07-24T11:08:54.707Z,27.91
2018-07-24T11:11:22.919Z,27.90
2018-07-24T11:13:51.440Z,27.72
2018-07-24T11:16:19.792Z,27.81
2018-07-24T11:18:48.141Z,27.78
2018-07-24T11:21:16.336Z,27.68
2018-07-24T11:23:44.575Z,27.92
2018-07-24T11:26:12.782Z,28.24
2018-07-24T11:28:40.964Z,28.23
2018-07-24T11:31:09.315Z,28.29
2018-07-24T11:33:37.536Z,28.36
2018-07-24T11:36:05.917Z,28.91
2018-07-24T11:38:34.082Z,28.55
2018-07-24T11:41:02.345Z,28.63
2018-07-24T11:43:30.495Z,28.75
2018-07-24T11:45:58.707Z,28.57
2018-07-24T11:48:26.981Z,28.90
2018-07-24T11:50:55.202Z,28.92
2018-07-24T11:53:23.527Z,28.49
2018-07-24T11:55:51.754Z,28.62
2018-07-24T11:58:19.983Z,28.35
2018-07-24T12:00:48.226Z,28.93
2018-07-24T12:03:16.464Z,29.23
2018-07-24T12:05:44.720Z,29.19
2018-07-24T12:08:12.953Z,28.76
2018-07-24T12:10:41.192Z,28.67
2018-07-24T12:13:09.469Z,28.65
2018-07-24T12:15:37.748Z,29.15
2018-07-24T12:18:05.974Z,29.33
2018-07-24T12:20:34.177Z,29.56
2018-07-24T12:23:02.444Z,29.07
2018-07-24T12:25:31.241Z,29.14
2018-07-24T12:27:59.443Z,29.34
2018-07-24T12:30:27.717Z,29.11
2018-07-24T12:32:55.943Z,29.44
2018-07-24T12:35:24.169Z,29.21
2018-07-24T12:37:52.399Z,29.12
2018-07-24T12:40:20.609Z,28.86
2018-07-24T12:42:48.906Z,29.16
2018-07-24T12:45:17.151Z,29.59
2018-07-24T12:47:45.361Z,29.72
2018-07-24T12:50:13.560Z,28.60
2018-07-24T12:52:42.422Z,29.30
2018-07-24T12:55:10.644Z,29.55
2018-07-24T12:57:38.818Z,29.47
2018-07-24T13:00:07.053Z,29.48
2018-07-24T13:02:35.348Z,29.29
2018-07-24T13:05:03.702Z,29.85
2018-07-24T13:07:31.939Z,29.13
2018-07-24T13:10:00.156Z,29.50
2018-07-24T13:12:28.449Z,29.72
2018-07-24T13:14:56.653Z,29.38
2018-07-24T13:17:24.845Z,29.52
2018-07-24T13:19:53.094Z,29.15
2018-07-24T13:22:21.320Z,29.51
2018-07-24T13:24:49.588Z,29.49
2018-07-24T13:27:18.072Z,29.86
2018-07-24T13:29:46.259Z,29.67
2018-07-24T13:32:14.461Z,29.55
2018-07-24T13:34:42.699Z,29.88
2018-07-24T13:37:11.004Z,30.28
2018-07-24T13:39:39.171Z,29.98
2018-07-24T13:42:07.398Z,30.12
2018-07-24T13:44:35.626Z,30.33
2018-07-24T13:47:03.865Z,30.10
2018-07-24T13:49:32.093Z,29.80
2018-07-24T13:52:00.382Z,30.08
2018-07-24T13:54:28.577Z,29.79
2018-07-24T13:56:56.776Z,30.28
2018-07-24T13:59:25.053Z,30.06
2018-07-24T14:01:53.311Z,30.30
2018-07-24T14:04:21.536Z,30.36
2018-07-24T14:06:49.800Z,30.25
2018-07-24T14:09:18.043Z,30.21
2018-07-24T14:11:46.218Z,30.36
2018-07-24T14:14:14.557Z,30.46
2018-07-24T14:16:42.729Z,30.33
2018-07-24T14:19:10.937Z,30.55
2018-07-24T14:21:39.212Z,30.42
2018-07-24T14:24:07.724Z,30.54
2018-07-24T14:26:35.911Z,30.26
2018-07-24T14:29:04.136Z,30.51
2018-07-24T14:31:32.354Z,30.62
2018-07-24T14:34:00.572Z,30.80
2018-07-24T14:36:28.890Z,30.86
2018-07-24T14:38:57.097Z,31.01
2018-07-24T14:41:25.321Z,30.83
2018-07-24T14:43:53.560Z,30.89
2018-07-24T14:46:21.845Z,30.94
2018-07-24T14:48:50.049Z,31.01
2018-07-24T14:51:18.285Z,31.10
2018-07-24T14:53:46.511Z,31.14
2018-07-24T14:56:14.692Z,30.83
2018-07-24T14:58:43.475Z,31.15
2018-07-24T15:01:11.651Z,31.28
2018-07-24T15:03:39.908Z,31.04
2018-07-24T15:06:08.172Z,31.02
2018-07-24T15:11:27.671Z,31.16
2018-07-24T15:14:01.446Z,31.27
2018-07-24T15:16:29.896Z,31.37
2018-07-24T15:18:59.321Z,31.00
2018-07-24T15:21:27.561Z,30.95
2018-07-24T15:23:55.764Z,30.92
2018-07-24T15:26:23.996Z,30.93
2018-07-24T15:28:52.262Z,31.17
2018-07-24T15:31:29.632Z,31.05
2018-07-24T15:33:57.832Z,31.44
2018-07-24T15:36:49.287Z,31.48
2018-07-24T15:39:17.789Z,31.18
2018-07-24T15:42:04.700Z,31.13
2018-07-24T15:44:32.976Z,31.51
2018-07-24T15:47:01.239Z,31.56
2018-07-24T15:49:29.596Z,31.45
2018-07-24T15:51:57.916Z,31.72
2018-07-24T15:54:26.202Z,31.68
2018-07-24T15:56:54.448Z,31.68
2018-07-24T15:59:22.691Z,31.66
2018-07-24T16:01:50.872Z,31.65
2018-07-24T16:04:19.394Z,31.50
2018-07-24T16:06:47.576Z,31.80
2018-07-24T16:09:15.777Z,31.70
2018-07-24T16:12:22.624Z,31.56
2018-07-24T16:14:50.840Z,31.69
2018-07-24T16:17:19.171Z,31.72
2018-07-24T16:19:47.447Z,31.66
2018-07-24T16:22:15.861Z,31.73
2018-07-24T16:24:44.112Z,31.76
2018-07-24T16:27:12.300Z,31.62
2018-07-24T16:29:40.618Z,31.93
2018-07-24T16:32:09.007Z,31.83
2018-07-24T16:34:37.262Z,31.92
2018-07-24T16:37:05.635Z,31.82
2018-07-24T16:39:33.810Z,31.77
2018-07-24T16:42:04.123Z,31.91
2018-07-24T16:44:32.359Z,32.09
2018-07-24T16:47:00.619Z,31.76
2018-07-24T16:49:28.928Z,31.85
2018-07-24T16:51:57.272Z,32.09
2018-07-24T16:54:30.235Z,32.27
2018-07-24T16:56:58.560Z,31.89
2018-07-24T16:59:26.923Z,32.06
2018-07-24T17:01:55.427Z,32.08
2018-07-24T17:04:48.900Z,31.99
2018-07-24T17:07:17.180Z,32.12
2018-07-24T17:09:45.399Z,31.98
2018-07-24T17:12:13.688Z,31.85
2018-07-24T17:14:41.979Z,32.07
2018-07-24T17:17:10.480Z,31.78
2018-07-24T17:19:39.001Z,31.97
2018-07-24T17:22:07.270Z,31.95
2018-07-24T17:24:35.513Z,31.80
2018-07-24T17:27:03.771Z,31.72
2018-07-24T17:29:32.003Z,31.87
2018-07-24T17:32:00.271Z,31.85
2018-07-24T17:34:28.491Z,31.86
2018-07-24T17:36:58.746Z,31.86
2018-07-24T17:39:27.059Z,31.89
2018-07-24T17:41:57.763Z,31.85
2018-07-24T17:44:28.596Z,31.92
2018-07-24T17:46:56.922Z,31.85
2018-07-24T17:49:25.174Z,31.83
2018-07-24T17:51:53.478Z,31.74
2018-07-24T17:54:21.754Z,31.80
2018-07-24T17:56:50.018Z,31.79
2018-07-24T17:59:18.296Z,31.75
2018-07-24T18:01:46.592Z,31.74
2018-07-24T18:04:14.831Z,31.78
2018-07-24T18:06:43.415Z,31.69
2018-07-24T18:09:13.043Z,31.59
2018-07-24T18:11:41.388Z,31.53
2018-07-24T18:14:10.253Z,31.51
2018-07-24T18:16:39.053Z,31.44
2018-07-24T18:19:07.404Z,31.42
2018-07-24T18:21:35.768Z,31.32
2018-07-24T18:24:04.234Z,31.28
2018-07-24T18:26:32.639Z,31.16
2018-07-24T18:29:00.916Z,31.17
2018-07-24T18:31:29.305Z,31.06
2018-07-24T18:33:57.552Z,30.98
2018-07-24T18:36:25.812Z,30.96
2018-07-24T18:38:54.169Z,31.08
2018-07-24T18:41:22.494Z,31.03
2018-07-24T18:43:51.111Z,30.90
2018-07-24T18:46:19.472Z,30.83
2018-07-24T18:48:47.770Z,30.79
2018-07-24T18:51:16.029Z,30.80
2018-07-24T18:53:44.351Z,30.72
2018-07-24T18:56:12.692Z,30.75
2018-07-24T18:58:40.927Z,30.67
2018-07-24T19:01:09.221Z,30.63
2018-07-24T19:03:37.477Z,30.64
2018-07-24T19:06:05.752Z,30.55
2018-07-24T19:08:34.160Z,30.38
2018-07-24T19:11:02.656Z,30.33
2018-07-24T19:13:30.950Z,30.35
2018-07-24T19:15:59.301Z,30.23
2018-07-24T19:18:28.204Z,29.80
2018-07-24T19:20:56.636Z,29.57
2018-07-24T19:23:24.944Z,29.73
2018-07-24T19:25:53.283Z,29.66
2018-07-24T19:28:21.669Z,29.52
2018-07-24T19:30:50.207Z,29.58
2018-07-24T19:33:18.645Z,29.56
2018-07-24T19:35:47.034Z,29.45
2018-07-24T19:38:15.567Z,29.40
2018-07-24T19:40:43.966Z,29.33
2018-07-24T19:43:13.750Z,29.39
2018-07-24T19:45:43.393Z,29.26
2018-07-24T19:48:12.055Z,29.36
2018-07-24T19:50:41.475Z,29.44
2018-07-24T19:53:11.024Z,29.38
2018-07-24T19:55:39.435Z,29.46
2018-07-24T19:58:08.755Z,29.34
2018-07-24T20:00:37.247Z,29.39
2018-07-24T20:03:05.602Z,29.28
2018-07-24T20:05:34.918Z,29.33
2018-07-24T20:08:04.275Z,29.17
2018-07-24T20:10:32.718Z,29.09
2018-07-24T20:13:01.093Z,29.19
2018-07-24T20:15:30.090Z,29.14
2018-07-24T20:17:58.379Z,29.16
2018-07-24T20:20:26.861Z,28.98
2018-07-24T20:22:55.592Z,28.92
2018-07-24T20:25:23.928Z,28.94
2018-07-24T20:27:52.302Z,28.95
2018-07-24T20:30:20.633Z,28.89
2018-07-24T20:32:48.970Z,28.66
2018-07-24T20:35:17.280Z,28.91
2018-07-24T20:37:46.184Z,28.64
2018-07-24T20:40:14.418Z,28.78
2018-07-24T20:42:43.163Z,28.55
2018-07-24T20:45:11.938Z,28.61
2018-07-24T20:47:40.388Z,28.62
2018-07-24T20:50:08.640Z,28.72
2018-07-24T20:52:36.892Z,28.48
2018-07-24T20:55:05.396Z,28.31
2018-07-24T20:57:33.713Z,28.37
2018-07-24T21:00:02.132Z,28.25
2018-07-24T21:02:30.363Z,28.09
2018-07-24T21:04:58.641Z,28.05
2018-07-24T21:07:26.945Z,28.16
2018-07-24T21:09:55.170Z,28.12
2018-07-24T21:12:23.412Z,28.00
2018-07-24T21:14:51.790Z,28.16
2018-07-24T21:17:20.025Z,27.98
2018-07-24T21:19:48.217Z,28.12
2018-07-24T21:22:16.516Z,28.03
2018-07-24T21:24:44.767Z,27.72
2018-07-24T21:27:12.976Z,28.04
2018-07-24T21:29:41.288Z,27.89
2018-07-24T21:32:09.564Z,27.70
2018-07-24T21:34:37.827Z,27.78
2018-07-24T21:37:06.100Z,27.76
2018-07-24T21:39:34.380Z,27.80
2018-07-24T21:42:02.659Z,27.67
2018-07-24T21:44:31.027Z,27.62
2018-07-24T21:46:59.255Z,27.81
2018-07-24T21:49:27.510Z,27.55
2018-07-24T21:51:55.752Z,27.53
2018-07-24T21:54:23.999Z,27.63
2018-07-24T21:56:52.305Z,27.42
2018-07-24T21:59:20.861Z,27.28
2018-07-24T22:01:49.185Z,27.36
2018-07-24T22:04:17.405Z,27.23
2018-07-24T22:06:45.667Z,27.26
2018-07-24T22:09:14.005Z,27.14
2018-07-24T22:11:42.186Z,27.20
2018-07-24T22:14:10.463Z,27.02
2018-07-24T22:16:38.690Z,26.93
2018-07-24T22:19:06.907Z,27.11
2018-07-24T22:21:35.146Z,27.24
2018-07-24T22:24:03.498Z,26.90
2018-07-24T22:26:31.738Z,27.03
2018-07-24T22:28:59.967Z,26.90
2018-07-24T22:31:28.331Z,26.81
2018-07-24T22:33:56.580Z,26.88
2018-07-24T22:36:24.786Z,26.75
2018-07-24T22:38:53.055Z,26.97
2018-07-24T22:41:21.274Z,26.91
2018-07-24T22:43:49.474Z,26.94
2018-07-24T22:46:17.687Z,26.82
2018-07-24T22:48:45.983Z,26.95
2018-07-24T22:51:14.167Z,26.72
2018-07-24T22:53:42.696Z,26.92
2018-07-24T22:56:11.438Z,26.84
2018-07-24T22:58:40.028Z,26.62
2018-07-24T23:01:08.243Z,26.59
2018-07-24T23:03:37.207Z,26.52
2018-07-24T23:06:05.530Z,26.77
2018-07-24T23:08:33.864Z,26.72
2018-07-24T23:11:02.137Z,26.58
2018-07-24T23:13:30.373Z,26.34
2018-07-24T23:15:58.638Z,26.38
2018-07-24T23:18:26.875Z,26.43
2018-07-24T23:20:55.082Z,26.59
2018-07-24T23:23:23.271Z,26.41
2018-07-24T23:25:51.571Z,26.17
2018-07-24T23:28:19.806Z,26.33
2018-07-24T23:30:47.998Z,26.42
2018-07-24T23:33:16.228Z,26.48
2018-07-24T23:35:44.423Z,26.44
2018-07-24T23:38:12.620Z,26.66
2018-07-24T23:40:40.867Z,26.60
2018-07-24T23:43:10.062Z,26.61
2018-07-24T23:45:38.297Z,26.37
2018-07-24T23:48:06.584Z,26.34
2018-07-24T23:50:34.937Z,26.55
2018-07-24T23:53:03.175Z,26.41
2018-07-24T23:55:34.400Z,26.54
2018-07-24T23:58:03.489Z,26.49
